Chewelah, WA (99109)

7:40 PM PDT on September 04, 2015 (GMT -0700)
405 E. Lincoln | | Change Station
CLOSE
Current Station
Personal Weather Station
Location: Chewelah, WA
Elevation: 1671 ft
Nearby Weather Stations

Elev 1671 ft 48.28 °N, 117.71 °W | Updated 53 seconds ago

Partly Cloudy
Partly Cloudy
57.4 °F
Feels Like 57.4 °F
N
0.0
Wind Variable Wind from North
Gusts 1.0 mph

Today
High -- | Low -- °F
--% Chance of Precip.
Yesterday
High -- | Low -- °F
Precip. -- in
6:12 AM 7:26 PM
Waning Gibbous, 53% visible
Pressure 29.84 in
Visibility 10.0 miles
Clouds Clear
Dew Point 39 °F
Humidity 50%
Rainfall 0.00 in
Snow Depth Not available.
UV 0 out of 12
Pollen 6.70 out of 12
Air Quality Not available.
Flu Activity Not available.
METAR KDEW 050153Z AUTO 01006KT 10SM CLR 18/M01 A2984 RMK AO2 SLP103 T01781011
Pressure 29.84 in
Visibility 10.0 miles
Clouds Clear
Dew Point 39 °F
Humidity 50%
Rainfall 0.00 in
Snow Depth Not available.
UV 0 out of 12
Pollen 6.70 out of 12
Air Quality Not available.
Flu Activity Not available.
METAR KDEW 050153Z AUTO 01006KT 10SM CLR 18/M01 A2984 RMK AO2 SLP103 T01781011

10-Day Weather Forecast

×

Almanac

Astronomy

Sep. 04, 2015 Rise Set
Actual Time
Civil Twilight
Nautical Twilight
Astronomical Twilight
Moon
Length of Visible Light
Length of Day
Tomorrow will be .
, % of the Moon is Illuminated

Today's Extremes

State Highs State Lows

Community

WunderPhotos

Upload Photos

1,852,392 photos uploaded!

WunderBlogs® & News

Nearby

Air Quality

  Air Quality AQ Index Pollutant
Not available.

Snow Depth

Station Depth Elevation

Earthquake Activity

City Distance Mag. Time & Date
Minimum magnitude displayed is 2.5.

Coastal Water Temperatures

Place Temperature

Stations

Nearby Weather Stations

Station Location Temp. Windchill Dew Point Humidity Wind Precip. Elev Updated Type